Darstellungsparameter: Aktuell verwendete Einstellungen:
Skalierung der Graphiken ... ?
xyx+y,   Skalierungsfaktor:      Skalierung: Modus: x, Faktor: 1
Darstellungszeitraum ... ?
Vom - - bis: - -   Zeitraum: 16.08.2018 - 17.08.2018
Min/Max/Avg-Anzeige ... ?
Zeige MMA aktuell
Zeige MMA Monat
Zeige MMA alles
Zeige --A aktuell
Zeige --A Monat
Zeige --A alles
Keine MMA-Anzeige
MMA:
Minimum Maximum Average (ber die Originaldaten)
MMA-Basis: 23.02.2003 - 18.08.2018
Quicknavigation für Darstellung... ?
Tage:      1T, 2T, 3T, 5T -1T -2T -3T -5T +1T +2T +3T +5T
Wochen: 1W, 2W, 3W -1W -2W -3W +1W +2W +3W
Monate: 1M, 3M, 6M -1M -3M -6M +1M +3M +6M
Jahre:    1J, 3J, 5J, 10J -1J -3J -5J -10J +1J +3J +5J +10J
Nutze für die Darstellung ... ?
Originaldaten oder Mittelwerte auf ...
Stundenbasis Tagesbasis Wochenbasis
Monatsbasis Jahresbasis      Datenbasis: Original-Daten
Darstellen als:
Statistik (Auto) Statistik J:M      Darstellung:
Zur Graphik,    zurück zur Übersicht aller Sensoren.
 
Tabellarische Datenbersicht: ?
 
Sensor: Nr:Datum:Temp:Feuchte:Taupunkt:
Aussen-T/F 1 16-08-2018 00:00:00 16.9 C 84 % 14.18 C
2 16-08-2018 00:05:00 16.8 C 84 % 14.08 C
3 16-08-2018 00:10:00 16.7 C 84 % 13.98 C
4 16-08-2018 00:15:00 16.6 C 85 % 14.07 C
5 16-08-2018 00:20:00 16.4 C 85 % 13.87 C
6 16-08-2018 00:25:00 16.3 C 85 % 13.77 C
7 16-08-2018 00:30:00 16.3 C 86 % 13.95 C
8 16-08-2018 00:35:00 16.2 C 86 % 13.86 C
9 16-08-2018 00:40:00 16.1 C 86 % 13.76 C
10 16-08-2018 00:45:00 16 C 86 % 13.66 C
11 16-08-2018 00:50:00 15.9 C 87 % 13.74 C
12 16-08-2018 00:55:00 15.8 C 87 % 13.64 C
13 16-08-2018 01:00:00 15.8 C 87 % 13.64 C
14 16-08-2018 01:05:00 15.7 C 87 % 13.54 C
15 16-08-2018 01:10:00 15.7 C 87 % 13.54 C
16 16-08-2018 01:15:00 15.6 C 88 % 13.62 C
17 16-08-2018 01:20:00 15.6 C 88 % 13.62 C
18 16-08-2018 01:25:00 15.5 C 88 % 13.52 C
19 16-08-2018 01:30:00 15.4 C 87 % 13.25 C
20 16-08-2018 01:35:00 15.4 C 88 % 13.42 C
21 16-08-2018 01:40:00 15.3 C 88 % 13.33 C
22 16-08-2018 01:45:00 15.3 C 88 % 13.33 C
23 16-08-2018 01:50:00 15.2 C 88 % 13.23 C
24 16-08-2018 01:55:00 15.1 C 88 % 13.13 C
25 16-08-2018 02:00:00 15.1 C 88 % 13.13 C
Sensor: Nr:Datum:Temp:Feuchte:Taupunkt:
Aussen-T/F 26 16-08-2018 02:05:00 15 C 89 % 13.2 C
27 16-08-2018 02:10:00 14.9 C 89 % 13.1 C
28 16-08-2018 02:15:00 14.9 C 89 % 13.1 C
29 16-08-2018 02:20:00 14.9 C 89 % 13.1 C
30 16-08-2018 02:25:00 14.9 C 90 % 13.28 C
31 16-08-2018 02:30:00 14.9 C 90 % 13.28 C
32 16-08-2018 02:35:00 14.9 C 89 % 13.1 C
33 16-08-2018 02:40:00 14.8 C 89 % 13.01 C
34 16-08-2018 02:45:00 14.7 C 89 % 12.91 C
35 16-08-2018 02:50:00 14.7 C 90 % 13.08 C
36 16-08-2018 02:55:00 14.7 C 90 % 13.08 C
37 16-08-2018 03:00:00 14.7 C 90 % 13.08 C
38 16-08-2018 03:05:00 14.6 C 90 % 12.98 C
39 16-08-2018 03:10:00 14.6 C 90 % 12.98 C
40 16-08-2018 03:15:00 14.5 C 90 % 12.88 C
41 16-08-2018 03:20:00 14.4 C 90 % 12.78 C
42 16-08-2018 03:25:00 14.3 C 90 % 12.68 C
43 16-08-2018 03:30:00 14.3 C 90 % 12.68 C
44 16-08-2018 03:35:00 14.2 C 90 % 12.58 C
45 16-08-2018 03:40:00 14.2 C 90 % 12.58 C
46 16-08-2018 03:45:00 14.2 C 91 % 12.75 C
47 16-08-2018 03:50:00 14.1 C 91 % 12.65 C
48 16-08-2018 03:55:00 14.1 C 91 % 12.65 C
49 16-08-2018 04:00:00 14 C 91 % 12.56 C
50 16-08-2018 04:05:00 14 C 91 % 12.56 C
Sensor: Nr:Datum:Temp:Feuchte:Taupunkt:
Aussen-T/F 51 16-08-2018 04:10:00 14.1 C 91 % 12.65 C
52 16-08-2018 04:15:00 14.1 C 91 % 12.65 C
53 16-08-2018 04:20:00 14.1 C 91 % 12.65 C
54 16-08-2018 04:25:00 14.1 C 91 % 12.65 C
55 16-08-2018 04:30:00 14 C 91 % 12.56 C
56 16-08-2018 04:35:00 14 C 91 % 12.56 C
57 16-08-2018 04:40:00 13.9 C 91 % 12.46 C
58 16-08-2018 04:45:00 13.8 C 92 % 12.52 C
59 16-08-2018 04:50:00 13.8 C 92 % 12.52 C
60 16-08-2018 04:55:00 13.7 C 91 % 12.26 C
61 16-08-2018 05:00:00 13.7 C 91 % 12.26 C
62 16-08-2018 05:05:00 13.6 C 92 % 12.33 C
63 16-08-2018 05:10:00 13.6 C 92 % 12.33 C
64 16-08-2018 05:15:00 13.5 C 92 % 12.23 C
65 16-08-2018 05:20:00 13.4 C 92 % 12.13 C
66 16-08-2018 05:25:00 13.4 C 92 % 12.13 C
67 16-08-2018 05:30:00 13.3 C 92 % 12.03 C
68 16-08-2018 05:35:00 13.3 C 92 % 12.03 C
69 16-08-2018 05:40:00 13.2 C 92 % 11.93 C
70 16-08-2018 05:45:00 13.2 C 92 % 11.93 C
71 16-08-2018 05:50:00 13.2 C 92 % 11.93 C
72 16-08-2018 05:55:00 13.1 C 92 % 11.83 C
73 16-08-2018 06:00:00 13.1 C 92 % 11.83 C
74 16-08-2018 06:05:00 13.1 C 92 % 11.83 C
75 16-08-2018 06:10:00 13 C 92 % 11.73 C
Sensor: Nr:Datum:Temp:Feuchte:Taupunkt:
Aussen-T/F 76 16-08-2018 06:15:00 12.9 C 92 % 11.63 C
77 16-08-2018 06:20:00 12.9 C 92 % 11.63 C
78 16-08-2018 06:25:00 12.9 C 93 % 11.8 C
79 16-08-2018 06:30:00 12.8 C 92 % 11.53 C
80 16-08-2018 06:35:00 12.8 C 93 % 11.7 C
81 16-08-2018 06:40:00 12.8 C 93 % 11.7 C
82 16-08-2018 06:45:00 12.8 C 93 % 11.7 C
83 16-08-2018 06:50:00 12.8 C 93 % 11.7 C
84 16-08-2018 06:55:00 12.8 C 93 % 11.7 C
85 16-08-2018 07:00:00 12.8 C 93 % 11.7 C
86 16-08-2018 07:05:00 12.8 C 93 % 11.7 C
87 16-08-2018 07:10:00 12.8 C 93 % 11.7 C
88 16-08-2018 07:15:00 12.8 C 93 % 11.7 C
89 16-08-2018 07:20:00 12.9 C 93 % 11.8 C
90 16-08-2018 07:25:00 12.9 C 93 % 11.8 C
91 16-08-2018 07:30:00 12.9 C 93 % 11.8 C
92 16-08-2018 07:35:00 12.9 C 93 % 11.8 C
93 16-08-2018 07:40:00 12.9 C 93 % 11.8 C
94 16-08-2018 07:45:00 12.9 C 93 % 11.8 C
95 16-08-2018 07:50:00 13 C 94 % 12.06 C
96 16-08-2018 07:55:00 13 C 94 % 12.06 C
97 16-08-2018 08:00:00 13.1 C 94 % 12.16 C
98 16-08-2018 08:05:00 13.2 C 94 % 12.26 C
99 16-08-2018 08:10:00 13.2 C 94 % 12.26 C
100 16-08-2018 08:15:00 13.3 C 94 % 12.36 C
Sensor: Nr:Datum:Temp:Feuchte:Taupunkt:
Aussen-T/F 101 16-08-2018 08:20:00 13.3 C 94 % 12.36 C
102 16-08-2018 08:25:00 13.4 C 94 % 12.45 C
103 16-08-2018 08:30:00 13.4 C 94 % 12.45 C
104 16-08-2018 08:35:00 13.5 C 94 % 12.55 C
105 16-08-2018 08:40:00 13.6 C 94 % 12.65 C
106 16-08-2018 08:45:00 13.7 C 94 % 12.75 C
107 16-08-2018 08:50:00 13.7 C 94 % 12.75 C
108 16-08-2018 08:55:00 13.8 C 94 % 12.85 C
109 16-08-2018 09:00:00 13.9 C 94 % 12.95 C
110 16-08-2018 09:05:00 13.9 C 94 % 12.95 C
111 16-08-2018 09:10:00 14.1 C 94 % 13.15 C
112 16-08-2018 09:15:00 14.2 C 94 % 13.25 C
113 16-08-2018 09:20:00 14.3 C 94 % 13.35 C
114 16-08-2018 09:25:00 14.3 C 94 % 13.35 C
115 16-08-2018 09:30:00 14.4 C 94 % 13.45 C
116 16-08-2018 09:35:00 14.6 C 94 % 13.65 C
117 16-08-2018 09:40:00 14.7 C 94 % 13.74 C
118 16-08-2018 09:45:00 14.8 C 94 % 13.84 C
119 16-08-2018 09:50:00 14.9 C 95 % 14.11 C
120 16-08-2018 09:55:00 15.1 C 94 % 14.14 C
121 16-08-2018 10:00:00 15.3 C 95 % 14.5 C
122 16-08-2018 10:05:00 15.4 C 95 % 14.6 C
123 16-08-2018 10:10:00 15.6 C 94 % 14.64 C
124 16-08-2018 10:15:00 15.8 C 94 % 14.84 C
125 16-08-2018 10:20:00 15.9 C 94 % 14.94 C
Sensor: Nr:Datum:Temp:Feuchte:Taupunkt:
Aussen-T/F 126 16-08-2018 10:25:00 16.1 C 94 % 15.13 C
127 16-08-2018 10:30:00 16.3 C 94 % 15.33 C
128 16-08-2018 10:35:00 16.5 C 94 % 15.53 C
129 16-08-2018 10:40:00 16.7 C 93 % 15.56 C
130 16-08-2018 10:45:00 16.9 C 93 % 15.76 C
131 16-08-2018 10:50:00 17.1 C 92 % 15.79 C
132 16-08-2018 10:55:00 17.3 C 91 % 15.82 C
133 16-08-2018 11:00:00 17.6 C 89 % 15.77 C
134 16-08-2018 11:05:00 18 C 88 % 15.98 C
135 16-08-2018 11:10:00 18.3 C 87 % 16.1 C
136 16-08-2018 11:15:00 18.6 C 85 % 16.03 C
137 16-08-2018 11:20:00 19 C 84 % 16.24 C
138 16-08-2018 11:25:00 19.4 C 84 % 16.63 C
139 16-08-2018 11:30:00 19.6 C 80 % 16.06 C
140 16-08-2018 11:35:00 19.9 C 80 % 16.35 C
141 16-08-2018 11:40:00 20.2 C 77 % 16.04 C
142 16-08-2018 11:45:00 20.6 C 75 % 16.01 C
143 16-08-2018 11:50:00 21.1 C 73 % 16.07 C
144 16-08-2018 11:55:00 21.4 C 73 % 16.36 C
145 16-08-2018 12:00:00 21.6 C 71 % 16.12 C
146 16-08-2018 12:05:00 21.8 C 71 % 16.31 C
147 16-08-2018 12:10:00 22.1 C 69 % 16.15 C
148 16-08-2018 12:15:00 22.3 C 68 % 16.11 C
149 16-08-2018 12:20:00 22.7 C 66 % 16.02 C
150 16-08-2018 12:25:00 23 C 65 % 16.07 C
Sensor: Nr:Datum:Temp:Feuchte:Taupunkt:
Aussen-T/F 151 16-08-2018 12:30:00 23.2 C 63 % 15.77 C
152 16-08-2018 12:35:00 23.4 C 64 % 16.2 C
153 16-08-2018 12:40:00 23.6 C 63 % 16.14 C
154 16-08-2018 12:45:00 23.7 C 60 % 15.48 C
155 16-08-2018 12:50:00 23.9 C 60 % 15.66 C
156 16-08-2018 12:55:00 24.1 C 58 % 15.32 C
157 16-08-2018 13:00:00 24.3 C 60 % 16.04 C
158 16-08-2018 13:05:00 24.5 C 58 % 15.7 C
159 16-08-2018 13:10:00 24.6 C 57 % 15.52 C
160 16-08-2018 13:15:00 24.7 C 60 % 16.41 C
161 16-08-2018 13:20:00 24.9 C 59 % 16.34 C
162 16-08-2018 13:25:00 24.9 C 57 % 15.8 C
163 16-08-2018 13:30:00 25.1 C 57 % 15.98 C
164 16-08-2018 13:35:00 25.2 C 55 % 15.52 C
165 16-08-2018 13:40:00 25.4 C 55 % 15.7 C
166 16-08-2018 13:45:00 25.6 C 52 % 15.02 C
167 16-08-2018 13:50:00 25.7 C 52 % 15.11 C
168 16-08-2018 13:55:00 25.9 C 51 % 14.99 C
169 16-08-2018 14:00:00 26 C 53 % 15.68 C
170 16-08-2018 14:05:00 26.1 C 51 % 15.17 C
171 16-08-2018 14:10:00 26.2 C 50 % 14.96 C
172 16-08-2018 14:15:00 26.4 C 49 % 14.83 C
173 16-08-2018 14:20:00 26.6 C 51 % 15.63 C
174 16-08-2018 14:25:00 26.8 C 49 % 15.19 C
175 16-08-2018 14:30:00 27 C 49 % 15.38 C
Sensor: Nr:Datum:Temp:Feuchte:Taupunkt:
Aussen-T/F 176 16-08-2018 14:35:00 27.2 C 48 % 15.24 C
177 16-08-2018 14:40:00 27.3 C 48 % 15.33 C
178 16-08-2018 14:45:00 27.4 C 48 % 15.42 C
179 16-08-2018 14:50:00 27.7 C 48 % 15.69 C
180 16-08-2018 14:55:00 27.8 C 47 % 15.45 C
181 16-08-2018 15:00:00 27.8 C 47 % 15.45 C
182 16-08-2018 15:05:00 28.1 C 44 % 14.7 C
183 16-08-2018 15:10:00 28.2 C 44 % 14.79 C
184 16-08-2018 15:15:00 28.4 C 43 % 14.62 C
185 16-08-2018 15:20:00 28.5 C 45 % 15.41 C
186 16-08-2018 15:25:00 28.7 C 44 % 15.24 C
187 16-08-2018 15:30:00 28.9 C 42 % 14.7 C
188 16-08-2018 15:35:00 29.2 C 44 % 15.69 C
189 16-08-2018 15:40:00 29.3 C 41 % 14.68 C
190 16-08-2018 15:45:00 29.3 C 43 % 15.42 C
191 16-08-2018 15:50:00 29.4 C 40 % 14.39 C
192 16-08-2018 15:55:00 29.6 C 43 % 15.69 C
193 16-08-2018 16:00:00 29.9 C 41 % 15.22 C
194 16-08-2018 16:05:00 30.2 C 39 % 14.71 C
195 16-08-2018 16:10:00 30.5 C 39 % 14.98 C
196 16-08-2018 16:15:00 30.7 C 38 % 14.75 C
197 16-08-2018 16:20:00 30.7 C 38 % 14.75 C
198 16-08-2018 16:25:00 30.8 C 37 % 14.43 C
199 16-08-2018 16:30:00 31 C 36 % 14.18 C
200 16-08-2018 16:35:00 31.1 C 36 % 14.27 C
Sensor: Nr:Datum:Temp:Feuchte:Taupunkt:
Aussen-T/F 201 16-08-2018 16:40:00 31.3 C 39 % 15.69 C
202 16-08-2018 16:45:00 31.3 C 36 % 14.44 C
203 16-08-2018 16:50:00 31.4 C 36 % 14.53 C
204 16-08-2018 16:55:00 31.7 C 35 % 14.36 C
205 16-08-2018 17:00:00 31.7 C 34 % 13.91 C
206 16-08-2018 17:05:00 31.8 C 33 % 13.54 C
207 16-08-2018 17:10:00 31.8 C 35 % 14.45 C
208 16-08-2018 17:15:00 31.9 C 34 % 14.09 C
209 16-08-2018 17:20:00 32.1 C 33 % 13.8 C
210 16-08-2018 17:25:00 32.2 C 34 % 14.35 C
211 16-08-2018 17:30:00 32.3 C 34 % 14.43 C
212 16-08-2018 17:35:00 32.4 C 33 % 14.06 C
213 16-08-2018 17:40:00 32.6 C 34 % 14.7 C
214 16-08-2018 17:45:00 32.6 C 33 % 14.23 C
215 16-08-2018 17:50:00 32.6 C 33 % 14.23 C
216 16-08-2018 17:55:00 32.7 C 35 % 15.23 C
217 16-08-2018 18:00:00 32.7 C 36 % 15.67 C
218 16-08-2018 18:05:00 32.7 C 33 % 14.32 C
219 16-08-2018 18:10:00 32.8 C 33 % 14.41 C
220 16-08-2018 18:15:00 32.8 C 38 % 16.61 C
221 16-08-2018 18:20:00 32.8 C 33 % 14.41 C
222 16-08-2018 18:25:00 32.7 C 33 % 14.32 C
223 16-08-2018 18:30:00 32.7 C 32 % 13.85 C
224 16-08-2018 18:35:00 32.7 C 34 % 14.78 C
225 16-08-2018 18:40:00 32.8 C 38 % 16.61 C
Sensor: Nr:Datum:Temp:Feuchte:Taupunkt:
Aussen-T/F 226 16-08-2018 18:45:00 32.9 C 39 % 17.11 C
227 16-08-2018 18:50:00 32.9 C 41 % 17.9 C
228 16-08-2018 18:55:00 32.8 C 37 % 16.19 C
229 16-08-2018 19:00:00 32.8 C 40 % 17.42 C
230 16-08-2018 19:05:00 32.7 C 40 % 17.33 C
231 16-08-2018 19:10:00 32.5 C 42 % 17.92 C
232 16-08-2018 19:15:00 32.2 C 42 % 17.65 C
233 16-08-2018 19:20:00 31.8 C 43 % 17.67 C
234 16-08-2018 19:25:00 31.3 C 44 % 17.58 C
235 16-08-2018 19:30:00 30.8 C 45 % 17.49 C
236 16-08-2018 19:35:00 30.3 C 46 % 17.39 C
237 16-08-2018 19:40:00 29.8 C 46 % 16.93 C
238 16-08-2018 19:45:00 29.3 C 48 % 17.15 C
239 16-08-2018 19:50:00 28.8 C 48 % 16.69 C
240 16-08-2018 19:55:00 28.5 C 49 % 16.75 C
241 16-08-2018 20:00:00 28.2 C 50 % 16.79 C
242 16-08-2018 20:05:00 27.9 C 51 % 16.83 C
243 16-08-2018 20:10:00 27.6 C 52 % 16.86 C
244 16-08-2018 20:15:00 27.2 C 52 % 16.49 C
245 16-08-2018 20:20:00 26.8 C 53 % 16.42 C
246 16-08-2018 20:25:00 26.4 C 54 % 16.34 C
247 16-08-2018 20:30:00 26 C 55 % 16.26 C
248 16-08-2018 20:35:00 25.6 C 55 % 15.89 C
249 16-08-2018 20:40:00 25.2 C 56 % 15.8 C
250 16-08-2018 20:45:00 24.8 C 57 % 15.7 C
Sensor: Nr:Datum:Temp:Feuchte:Taupunkt:
Aussen-T/F 251 16-08-2018 20:50:00 24.6 C 58 % 15.79 C
252 16-08-2018 20:55:00 24.2 C 57 % 15.14 C
253 16-08-2018 21:00:00 23.9 C 59 % 15.4 C
254 16-08-2018 21:05:00 23.7 C 60 % 15.48 C
255 16-08-2018 21:10:00 23.4 C 60 % 15.19 C
256 16-08-2018 21:15:00 23.2 C 61 % 15.26 C
257 16-08-2018 21:20:00 22.9 C 61 % 14.98 C
258 16-08-2018 21:25:00 22.7 C 63 % 15.3 C
259 16-08-2018 21:30:00 22.4 C 64 % 15.26 C
260 16-08-2018 21:35:00 22.2 C 65 % 15.31 C
261 16-08-2018 21:40:00 21.9 C 65 % 15.02 C
262 16-08-2018 21:45:00 21.7 C 65 % 14.84 C
263 16-08-2018 21:50:00 21.4 C 66 % 14.79 C
264 16-08-2018 21:55:00 21.2 C 67 % 14.83 C
265 16-08-2018 22:00:00 21 C 68 % 14.87 C
266 16-08-2018 22:05:00 20.8 C 69 % 14.91 C
267 16-08-2018 22:10:00 20.7 C 67 % 14.36 C
268 16-08-2018 22:15:00 20.6 C 67 % 14.26 C
269 16-08-2018 22:20:00 20.6 C 69 % 14.71 C
270 16-08-2018 22:25:00 20.6 C 67 % 14.26 C
271 16-08-2018 22:30:00 20.7 C 67 % 14.36 C
272 16-08-2018 22:35:00 20.8 C 69 % 14.91 C
273 16-08-2018 22:40:00 20.8 C 70 % 15.13 C
274 16-08-2018 22:45:00 20.8 C 70 % 15.13 C
275 16-08-2018 22:50:00 20.8 C 71 % 15.35 C
Sensor: Nr:Datum:Temp:Feuchte:Taupunkt:
Aussen-T/F 276 16-08-2018 22:55:00 20.8 C 71 % 15.35 C
277 16-08-2018 23:00:00 20.8 C 73 % 15.78 C
278 16-08-2018 23:05:00 20.7 C 73 % 15.69 C
279 16-08-2018 23:10:00 20.7 C 74 % 15.9 C
280 16-08-2018 23:15:00 20.6 C 75 % 16.01 C
281 16-08-2018 23:20:00 20.4 C 75 % 15.82 C
282 16-08-2018 23:25:00 20.3 C 75 % 15.72 C
283 16-08-2018 23:30:00 20.2 C 76 % 15.83 C
284 16-08-2018 23:35:00 20 C 76 % 15.64 C
285 16-08-2018 23:40:00 19.8 C 77 % 15.65 C
286 16-08-2018 23:45:00 19.7 C 78 % 15.76 C
287 16-08-2018 23:50:00 19.6 C 78 % 15.66 C
288 16-08-2018 23:55:00 19.4 C 78 % 15.47 C
289 17-08-2018 00:00:00 19.3 C 78 % 15.37 C
290 17-08-2018 00:05:00 19.3 C 79 % 15.57 C
291 17-08-2018 00:10:00 19.2 C 78 % 15.27 C
292 17-08-2018 00:15:00 19.2 C 79 % 15.47 C
293 17-08-2018 00:20:00 19.2 C 79 % 15.47 C
294 17-08-2018 00:25:00 19 C 79 % 15.28 C
295 17-08-2018 00:30:00 18.9 C 79 % 15.18 C
296 17-08-2018 00:35:00 18.7 C 80 % 15.18 C
297 17-08-2018 00:40:00 18.6 C 81 % 15.28 C
298 17-08-2018 00:45:00 18.4 C 81 % 15.08 C
299 17-08-2018 00:50:00 18.4 C 82 % 15.27 C
300 17-08-2018 00:55:00 18.2 C 82 % 15.08 C
Sensor: Nr:Datum:Temp:Feuchte:Taupunkt:
Aussen-T/F 301 17-08-2018 01:00:00 18.1 C 82 % 14.98 C
302 17-08-2018 01:05:00 17.9 C 82 % 14.78 C
303 17-08-2018 01:10:00 17.8 C 83 % 14.88 C
304 17-08-2018 01:15:00 17.8 C 83 % 14.88 C
305 17-08-2018 01:20:00 17.7 C 83 % 14.78 C
306 17-08-2018 01:25:00 17.7 C 84 % 14.96 C
307 17-08-2018 01:30:00 17.6 C 84 % 14.87 C
308 17-08-2018 01:35:00 17.6 C 84 % 14.87 C
309 17-08-2018 01:40:00 17.5 C 84 % 14.77 C
310 17-08-2018 01:45:00 17.4 C 84 % 14.67 C
311 17-08-2018 01:50:00 17.4 C 84 % 14.67 C
312 17-08-2018 01:55:00 17.3 C 85 % 14.76 C
313 17-08-2018 02:00:00 17.3 C 85 % 14.76 C
314 17-08-2018 02:05:00 17.3 C 85 % 14.76 C
315 17-08-2018 02:10:00 17.2 C 85 % 14.66 C
316 17-08-2018 02:15:00 17.2 C 85 % 14.66 C
317 17-08-2018 02:20:00 17.1 C 85 % 14.56 C
318 17-08-2018 02:25:00 17 C 85 % 14.46 C
319 17-08-2018 02:30:00 16.9 C 86 % 14.54 C
320 17-08-2018 02:35:00 16.8 C 86 % 14.45 C
321 17-08-2018 02:40:00 16.8 C 86 % 14.45 C
322 17-08-2018 02:45:00 16.7 C 86 % 14.35 C
323 17-08-2018 02:50:00 16.6 C 86 % 14.25 C
324 17-08-2018 02:55:00 16.6 C 86 % 14.25 C
325 17-08-2018 03:00:00 16.5 C 87 % 14.33 C
Sensor: Nr:Datum:Temp:Feuchte:Taupunkt:
Aussen-T/F 326 17-08-2018 03:05:00 16.5 C 87 % 14.33 C
327 17-08-2018 03:10:00 16.4 C 87 % 14.23 C
328 17-08-2018 03:15:00 16.3 C 87 % 14.13 C
329 17-08-2018 03:20:00 16.3 C 87 % 14.13 C
330 17-08-2018 03:25:00 16.2 C 87 % 14.03 C
331 17-08-2018 03:30:00 16.2 C 87 % 14.03 C
332 17-08-2018 03:35:00 16.2 C 88 % 14.21 C
333 17-08-2018 03:40:00 16.1 C 88 % 14.11 C
334 17-08-2018 03:45:00 16.1 C 88 % 14.11 C
335 17-08-2018 03:50:00 16.1 C 88 % 14.11 C
336 17-08-2018 03:55:00 16 C 88 % 14.01 C
337 17-08-2018 04:00:00 16 C 88 % 14.01 C
338 17-08-2018 04:05:00 16.1 C 88 % 14.11 C
339 17-08-2018 04:10:00 16 C 88 % 14.01 C
340 17-08-2018 04:15:00 15.9 C 88 % 13.92 C
341 17-08-2018 04:20:00 15.9 C 88 % 13.92 C
342 17-08-2018 04:25:00 15.9 C 88 % 13.92 C
343 17-08-2018 04:30:00 15.9 C 88 % 13.92 C
344 17-08-2018 04:35:00 15.8 C 88 % 13.82 C
345 17-08-2018 04:40:00 15.9 C 89 % 14.09 C
346 17-08-2018 04:45:00 15.9 C 89 % 14.09 C
347 17-08-2018 04:50:00 15.9 C 88 % 13.92 C
348 17-08-2018 04:55:00 15.9 C 88 % 13.92 C
349 17-08-2018 05:00:00 15.8 C 88 % 13.82 C
350 17-08-2018 05:05:00 15.8 C 89 % 13.99 C
Sensor: Nr:Datum:Temp:Feuchte:Taupunkt:
Aussen-T/F 351 17-08-2018 05:10:00 15.8 C 89 % 13.99 C
352 17-08-2018 05:15:00 15.8 C 89 % 13.99 C
353 17-08-2018 05:20:00 15.8 C 89 % 13.99 C
354 17-08-2018 05:25:00 15.8 C 89 % 13.99 C
355 17-08-2018 05:30:00 15.9 C 90 % 14.26 C
356 17-08-2018 05:35:00 16.1 C 90 % 14.46 C
357 17-08-2018 05:40:00 16.2 C 90 % 14.56 C
358 17-08-2018 05:45:00 16.3 C 89 % 14.48 C
359 17-08-2018 05:50:00 16.4 C 89 % 14.58 C
360 17-08-2018 05:55:00 16.6 C 89 % 14.78 C
361 17-08-2018 06:00:00 16.8 C 88 % 14.8 C
362 17-08-2018 06:05:00 16.9 C 87 % 14.72 C
363 17-08-2018 06:10:00 17 C 87 % 14.82 C
364 17-08-2018 06:15:00 17.1 C 87 % 14.92 C
365 17-08-2018 06:20:00 17.1 C 87 % 14.92 C
366 17-08-2018 06:25:00 17.1 C 86 % 14.74 C
367 17-08-2018 06:30:00 17.1 C 86 % 14.74 C
368 17-08-2018 06:35:00 17.1 C 86 % 14.74 C
369 17-08-2018 06:40:00 17.1 C 87 % 14.92 C
370 17-08-2018 06:45:00 17.1 C 87 % 14.92 C
371 17-08-2018 06:50:00 17.2 C 87 % 15.02 C
372 17-08-2018 06:55:00 17.3 C 86 % 14.94 C
373 17-08-2018 07:00:00 17.4 C 86 % 15.03 C
374 17-08-2018 07:05:00 17.4 C 86 % 15.03 C
375 17-08-2018 07:10:00 17.6 C 86 % 15.23 C
Sensor: Nr:Datum:Temp:Feuchte:Taupunkt:
Aussen-T/F 376 17-08-2018 07:15:00 17.6 C 86 % 15.23 C
377 17-08-2018 07:20:00 17.6 C 86 % 15.23 C
378 17-08-2018 07:25:00 17.6 C 86 % 15.23 C
379 17-08-2018 07:30:00 17.6 C 86 % 15.23 C
380 17-08-2018 07:35:00 17.7 C 86 % 15.33 C
381 17-08-2018 07:40:00 17.7 C 86 % 15.33 C
382 17-08-2018 07:45:00 17.8 C 86 % 15.43 C
383 17-08-2018 07:50:00 17.8 C 86 % 15.43 C
384 17-08-2018 07:55:00 17.8 C 86 % 15.43 C
385 17-08-2018 08:00:00 17.9 C 86 % 15.53 C
386 17-08-2018 08:05:00 17.9 C 86 % 15.53 C
387 17-08-2018 08:10:00 18 C 86 % 15.62 C
388 17-08-2018 08:15:00 18 C 85 % 15.44 C
389 17-08-2018 08:20:00 18.1 C 85 % 15.54 C
390 17-08-2018 08:25:00 18.1 C 85 % 15.54 C
391 17-08-2018 08:30:00 18.1 C 85 % 15.54 C
392 17-08-2018 08:35:00 18.1 C 85 % 15.54 C
393 17-08-2018 08:40:00 18.2 C 85 % 15.64 C
394 17-08-2018 08:45:00 18.3 C 84 % 15.55 C
395 17-08-2018 08:50:00 18.4 C 84 % 15.65 C
396 17-08-2018 08:55:00 18.6 C 84 % 15.84 C
397 17-08-2018 09:00:00 18.7 C 83 % 15.75 C
398 17-08-2018 09:05:00 18.8 C 83 % 15.85 C
399 17-08-2018 09:10:00 18.9 C 83 % 15.95 C
400 17-08-2018 09:15:00 19.1 C 82 % 15.96 C
Sensor: Nr:Datum:Temp:Feuchte:Taupunkt:
Aussen-T/F 401 17-08-2018 09:20:00 19.2 C 82 % 16.05 C
402 17-08-2018 09:25:00 19.2 C 82 % 16.05 C
403 17-08-2018 09:30:00 19.3 C 81 % 15.96 C
404 17-08-2018 09:35:00 19.3 C 81 % 15.96 C
405 17-08-2018 09:40:00 19.4 C 81 % 16.06 C
406 17-08-2018 09:45:00 19.4 C 80 % 15.86 C
407 17-08-2018 09:50:00 19.6 C 79 % 15.86 C
408 17-08-2018 09:55:00 19.7 C 79 % 15.96 C
409 17-08-2018 10:00:00 19.8 C 78 % 15.85 C
410 17-08-2018 10:05:00 20 C 78 % 16.05 C
411 17-08-2018 10:10:00 20.2 C 77 % 16.04 C
412 17-08-2018 10:15:00 20.2 C 77 % 16.04 C
413 17-08-2018 10:20:00 20.3 C 77 % 16.14 C
414 17-08-2018 10:25:00 20.3 C 77 % 16.14 C
415 17-08-2018 10:30:00 20.2 C 77 % 16.04 C
416 17-08-2018 10:35:00 20.2 C 77 % 16.04 C
417 17-08-2018 10:40:00 20.3 C 78 % 16.34 C
418 17-08-2018 10:45:00 20.6 C 76 % 16.22 C
419 17-08-2018 10:50:00 20.8 C 75 % 16.21 C
420 17-08-2018 10:55:00 21.1 C 74 % 16.29 C
421 17-08-2018 11:00:00 21.2 C 74 % 16.38 C
422 17-08-2018 11:05:00 21.3 C 73 % 16.26 C
423 17-08-2018 11:10:00 21.4 C 73 % 16.36 C
424 17-08-2018 11:15:00 21.5 C 72 % 16.24 C
425 17-08-2018 11:20:00 21.7 C 72 % 16.43 C
Sensor: Nr:Datum:Temp:Feuchte:Taupunkt:
Aussen-T/F 426 17-08-2018 11:25:00 21.8 C 72 % 16.53 C
427 17-08-2018 11:30:00 21.9 C 72 % 16.62 C
428 17-08-2018 11:35:00 21.9 C 71 % 16.4 C
429 17-08-2018 11:40:00 21.9 C 72 % 16.62 C
430 17-08-2018 11:45:00 22.1 C 71 % 16.6 C
431 17-08-2018 11:50:00 22.2 C 71 % 16.69 C
432 17-08-2018 11:55:00 22.4 C 70 % 16.66 C
433 17-08-2018 12:00:00 22.7 C 69 % 16.72 C
434 17-08-2018 12:05:00 22.9 C 69 % 16.91 C
435 17-08-2018 12:10:00 23.2 C 68 % 16.97 C
436 17-08-2018 12:15:00 23.3 C 67 % 16.83 C
437 17-08-2018 12:20:00 23.5 C 66 % 16.78 C
438 17-08-2018 12:25:00 23.6 C 68 % 17.35 C
439 17-08-2018 12:30:00 23.7 C 66 % 16.97 C
440 17-08-2018 12:35:00 23.7 C 66 % 16.97 C
441 17-08-2018 12:40:00 23.7 C 65 % 16.73 C
442 17-08-2018 12:45:00 23.6 C 65 % 16.64 C
443 17-08-2018 12:50:00 23.6 C 66 % 16.88 C
444 17-08-2018 12:55:00 23.6 C 66 % 16.88 C
445 17-08-2018 13:00:00 23.6 C 64 % 16.39 C
446 17-08-2018 13:05:00 23.6 C 65 % 16.64 C
447 17-08-2018 13:10:00 23.6 C 65 % 16.64 C
448 17-08-2018 13:15:00 23.6 C 64 % 16.39 C
449 17-08-2018 13:20:00 23.7 C 65 % 16.73 C
450 17-08-2018 13:25:00 23.7 C 65 % 16.73 C
Sensor: Nr:Datum:Temp:Feuchte:Taupunkt:
Aussen-T/F 451 17-08-2018 13:30:00 23.7 C 66 % 16.97 C
452 17-08-2018 13:35:00 23.6 C 67 % 17.11 C
453 17-08-2018 13:40:00 23.6 C 68 % 17.35 C
454 17-08-2018 13:45:00 23.7 C 68 % 17.44 C
455 17-08-2018 13:50:00 23.8 C 68 % 17.54 C
456 17-08-2018 13:55:00 23.8 C 67 % 17.3 C
457 17-08-2018 14:00:00 23.9 C 66 % 17.16 C
458 17-08-2018 14:05:00 24.1 C 67 % 17.59 C
459 17-08-2018 14:10:00 24.1 C 66 % 17.35 C
460 17-08-2018 14:15:00 24.1 C 65 % 17.11 C
461 17-08-2018 14:20:00 24.1 C 66 % 17.35 C
462 17-08-2018 14:25:00 24.1 C 65 % 17.11 C
463 17-08-2018 14:30:00 23.9 C 65 % 16.92 C
464 17-08-2018 14:35:00 23.8 C 66 % 17.07 C
465 17-08-2018 14:40:00 23.9 C 66 % 17.16 C
466 17-08-2018 14:45:00 23.9 C 65 % 16.92 C
467 17-08-2018 14:50:00 23.8 C 65 % 16.83 C
468 17-08-2018 14:55:00 23.6 C 66 % 16.88 C
469 17-08-2018 15:00:00 23.6 C 67 % 17.11 C
470 17-08-2018 15:05:00 23.6 C 66 % 16.88 C
471 17-08-2018 15:10:00 23.7 C 66 % 16.97 C
472 17-08-2018 15:15:00 23.8 C 65 % 16.83 C
473 17-08-2018 15:20:00 23.8 C 64 % 16.58 C
474 17-08-2018 15:25:00 23.6 C 65 % 16.64 C
475 17-08-2018 15:30:00 23.6 C 65 % 16.64 C
Sensor: Nr:Datum:Temp:Feuchte:Taupunkt:
Aussen-T/F 476 17-08-2018 15:35:00 23.6 C 65 % 16.64 C
477 17-08-2018 15:40:00 23.6 C 64 % 16.39 C
478 17-08-2018 15:45:00 23.7 C 64 % 16.49 C
479 17-08-2018 15:50:00 23.7 C 64 % 16.49 C
480 17-08-2018 15:55:00 23.8 C 65 % 16.83 C
481 17-08-2018 16:00:00 24.1 C 64 % 16.86 C
482 17-08-2018 16:05:00 24.2 C 63 % 16.71 C
483 17-08-2018 16:10:00 24.2 C 63 % 16.71 C
484 17-08-2018 16:15:00 23.9 C 62 % 16.18 C
485 17-08-2018 16:20:00 23.6 C 64 % 16.39 C
486 17-08-2018 16:25:00 23.2 C 65 % 16.26 C
487 17-08-2018 16:30:00 23.1 C 65 % 16.16 C
488 17-08-2018 16:35:00 22.9 C 66 % 16.21 C
489 17-08-2018 16:40:00 22.8 C 66 % 16.12 C
490 17-08-2018 16:45:00 22.7 C 66 % 16.02 C
491 17-08-2018 16:50:00 22.6 C 66 % 15.93 C
492 17-08-2018 16:55:00 22.4 C 66 % 15.74 C
493 17-08-2018 17:00:00 22.3 C 68 % 16.11 C
494 17-08-2018 17:05:00 22.3 C 69 % 16.34 C
495 17-08-2018 17:10:00 22.3 C 68 % 16.11 C
496 17-08-2018 17:15:00 22.4 C 69 % 16.43 C
497 17-08-2018 17:20:00 22.8 C 67 % 16.35 C
498 17-08-2018 17:25:00 23.1 C 65 % 16.16 C
499 17-08-2018 17:30:00 23.1 C 65 % 16.16 C
500 17-08-2018 17:35:00 22.9 C 66 % 16.21 C
Sensor: Nr:Datum:Temp:Feuchte:Taupunkt:
Aussen-T/F 501 17-08-2018 17:40:00 22.7 C 67 % 16.26 C
502 17-08-2018 17:45:00 22.4 C 68 % 16.2 C
503 17-08-2018 17:50:00 22.3 C 68 % 16.11 C
504 17-08-2018 17:55:00 22.3 C 69 % 16.34 C
505 17-08-2018 18:00:00 22.3 C 69 % 16.34 C
506 17-08-2018 18:05:00 22.4 C 69 % 16.43 C
507 17-08-2018 18:10:00 22.4 C 69 % 16.43 C
508 17-08-2018 18:15:00 22.4 C 68 % 16.2 C
509 17-08-2018 18:20:00 22.4 C 68 % 16.2 C
510 17-08-2018 18:25:00 22.4 C 69 % 16.43 C
511 17-08-2018 18:30:00 22.4 C 68 % 16.2 C
512 17-08-2018 18:35:00 22.2 C 68 % 16.01 C
513 17-08-2018 18:40:00 21.9 C 69 % 15.96 C
514 17-08-2018 18:45:00 21.7 C 69 % 15.77 C
515 17-08-2018 18:50:00 21.7 C 70 % 15.99 C
516 17-08-2018 18:55:00 21.7 C 70 % 15.99 C
517 17-08-2018 19:00:00 21.7 C 70 % 15.99 C
518 17-08-2018 19:05:00 21.7 C 69 % 15.77 C
519 17-08-2018 19:10:00 21.7 C 69 % 15.77 C
520 17-08-2018 19:15:00 21.7 C 69 % 15.77 C
521 17-08-2018 19:20:00 21.6 C 69 % 15.67 C
522 17-08-2018 19:25:00 21.6 C 69 % 15.67 C
523 17-08-2018 19:30:00 21.6 C 69 % 15.67 C
524 17-08-2018 19:35:00 21.7 C 68 % 15.54 C
525 17-08-2018 19:40:00 21.7 C 68 % 15.54 C
Sensor: Nr:Datum:Temp:Feuchte:Taupunkt:
Aussen-T/F 526 17-08-2018 19:45:00 21.7 C 68 % 15.54 C
527 17-08-2018 19:50:00 21.7 C 68 % 15.54 C
528 17-08-2018 19:55:00 21.7 C 68 % 15.54 C
529 17-08-2018 20:00:00 21.7 C 68 % 15.54 C
530 17-08-2018 20:05:00 21.6 C 68 % 15.44 C
531 17-08-2018 20:10:00 21.4 C 69 % 15.48 C
532 17-08-2018 20:15:00 21.3 C 69 % 15.38 C
533 17-08-2018 20:20:00 21.2 C 68 % 15.06 C
534 17-08-2018 20:25:00 21.2 C 69 % 15.29 C
535 17-08-2018 20:30:00 21.1 C 68 % 14.97 C
536 17-08-2018 20:35:00 20.9 C 67 % 14.55 C
537 17-08-2018 20:40:00 20.8 C 68 % 14.68 C
538 17-08-2018 20:45:00 20.6 C 70 % 14.94 C
539 17-08-2018 20:50:00 20.4 C 70 % 14.75 C
540 17-08-2018 20:55:00 20.2 C 70 % 14.56 C
541 17-08-2018 21:00:00 20 C 72 % 14.8 C
542 17-08-2018 21:05:00 19.7 C 73 % 14.73 C
543 17-08-2018 21:10:00 19.4 C 74 % 14.65 C
544 17-08-2018 21:15:00 19.1 C 75 % 14.57 C
545 17-08-2018 21:20:00 18.9 C 76 % 14.58 C
546 17-08-2018 21:25:00 18.7 C 77 % 14.59 C
547 17-08-2018 21:30:00 18.6 C 77 % 14.49 C
548 17-08-2018 21:35:00 18.4 C 78 % 14.5 C
549 17-08-2018 21:40:00 18.3 C 78 % 14.4 C
550 17-08-2018 21:45:00 18.2 C 78 % 14.3 C
Sensor: Nr:Datum:Temp:Feuchte:Taupunkt:
Aussen-T/F 551 17-08-2018 21:50:00 18.1 C 79 % 14.4 C
552 17-08-2018 21:55:00 17.9 C 79 % 14.21 C
553 17-08-2018 22:00:00 17.9 C 79 % 14.21 C
554 17-08-2018 22:05:00 17.8 C 79 % 14.11 C
555 17-08-2018 22:10:00 17.7 C 79 % 14.01 C
556 17-08-2018 22:15:00 17.7 C 80 % 14.21 C
557 17-08-2018 22:20:00 17.6 C 80 % 14.11 C
558 17-08-2018 22:25:00 17.5 C 80 % 14.01 C
559 17-08-2018 22:30:00 17.4 C 80 % 13.92 C
560 17-08-2018 22:35:00 17.4 C 80 % 13.92 C
561 17-08-2018 22:40:00 17.3 C 80 % 13.82 C
562 17-08-2018 22:45:00 17.3 C 80 % 13.82 C
563 17-08-2018 22:50:00 17.2 C 80 % 13.72 C
564 17-08-2018 22:55:00 17.1 C 80 % 13.62 C
565 17-08-2018 23:00:00 17.1 C 80 % 13.62 C
566 17-08-2018 23:05:00 17 C 80 % 13.53 C
567 17-08-2018 23:10:00 16.9 C 80 % 13.43 C
568 17-08-2018 23:15:00 16.9 C 80 % 13.43 C
569 17-08-2018 23:20:00 16.8 C 80 % 13.33 C
570 17-08-2018 23:25:00 16.7 C 81 % 13.43 C
571 17-08-2018 23:30:00 16.7 C 81 % 13.43 C
572 17-08-2018 23:35:00 16.5 C 81 % 13.23 C
573 17-08-2018 23:40:00 16.4 C 82 % 13.32 C
574 17-08-2018 23:45:00 16.3 C 82 % 13.22 C
575 17-08-2018 23:50:00 16.3 C 82 % 13.22 C
Sensor: Nr:Datum:Temp:Feuchte:Taupunkt:
Aussen-T/F 576 17-08-2018 23:55:00 16.2 C 82 % 13.13 C

Legende:
   Min
   Max


Maximal/Minimal-Werte vom 23.02.2003 - 18.08.2018

Sensor Min Max Avg
Temp
(Aussen-T/F)
-16.4 °C
20-12-2009  01:30:01
38.6 °C
04-07-2015  16:30:00
11.21 °C
Feuchte
(Aussen-T/F)
18 %
17-07-2015  15:55:00
100 %
07-10-2012  03:05:00
76.61 %

Die Daten stammen von einer Davis Vantage Pro 2 Wetter-Station und werden unter Linux mit der Software wview2wettercgi und aufbereitet. Alle Angaben erfolgen ohne Gewähr für ihre Vollständigkeit oder Richtigkeit.
Kontakt: Rainer Krienke krienke@uni-koblenz.de . Meine Webseiten an der Uni Koblenz oder privat.
Version: $Revision: 0.78 $